createdAt,value
2023-03-03T00:01:26.061Z,72.80
2023-03-03T00:03:52.794Z,115.15
2023-03-03T00:06:20.383Z,111.25
2023-03-03T00:08:46.692Z,92.47
2023-03-03T00:11:13.319Z,146.50
2023-03-03T00:13:45.835Z,76.82
2023-03-03T00:16:25.224Z,74.25
2023-03-03T00:18:53.061Z,89.85
2023-03-03T00:21:25.579Z,169.30
2023-03-03T00:23:52.732Z,101.88
2023-03-03T00:26:39.355Z,45.63
2023-03-03T00:29:31.883Z,141.73
2023-03-03T00:32:19.204Z,61.83
2023-03-03T00:34:46.142Z,31.98
2023-03-03T00:37:31.693Z,28.95
2023-03-03T00:40:23.934Z,33.72
2023-03-03T00:42:55.508Z,32.03
2023-03-03T00:45:30.817Z,31.85
2023-03-03T00:47:58.814Z,33.53
2023-03-03T00:50:27.470Z,30.70
2023-03-03T00:53:01.520Z,32.72
2023-03-03T00:55:28.759Z,34.25
2023-03-03T00:57:55.278Z,33.63
2023-03-03T01:00:26.615Z,40.70
2023-03-03T01:02:53.299Z,45.63
2023-03-03T01:05:21.082Z,50.60
2023-03-03T01:07:48.217Z,51.90
2023-03-03T01:10:14.614Z,55.28
2023-03-03T01:12:41.316Z,70.75
2023-03-03T01:15:10.722Z,84.85
2023-03-03T01:17:38.502Z,63.55
2023-03-03T01:20:05.202Z,46.70
2023-03-03T01:22:31.591Z,37.33
2023-03-03T01:24:59.962Z,41.20
2023-03-03T01:27:28.467Z,37.70
2023-03-03T01:29:56.496Z,41.92
2023-03-03T01:32:24.490Z,36.85
2023-03-03T01:34:51.082Z,30.13
2023-03-03T01:37:17.454Z,35.42
2023-03-03T01:39:48.346Z,36.47
2023-03-03T01:42:15.690Z,35.60
2023-03-03T01:44:43.988Z,41.92
2023-03-03T01:47:25.436Z,42.30
2023-03-03T01:49:58.503Z,31.02
2023-03-03T01:52:30.374Z,37.58
2023-03-03T01:55:02.536Z,34.72
2023-03-03T01:57:33.614Z,37.15
2023-03-03T02:00:02.269Z,37.58
2023-03-03T02:02:41.709Z,37.55
2023-03-03T02:05:08.637Z,38.15
2023-03-03T02:07:36.077Z,41.25
2023-03-03T02:10:08.952Z,39.53
2023-03-03T02:12:45.343Z,44.55
2023-03-03T02:15:22.436Z,37.15
2023-03-03T02:17:53.480Z,51.67
2023-03-03T02:20:38.238Z,54.80
2023-03-03T02:23:29.466Z,52.67
2023-03-03T02:25:58.727Z,54.95
2023-03-03T02:28:35.179Z,50.50
2023-03-03T02:31:08.332Z,54.60
2023-03-03T02:33:34.731Z,48.72
2023-03-03T02:36:01.073Z,45.38
2023-03-03T02:38:36.401Z,43.72
2023-03-03T02:41:27.934Z,37.42
2023-03-03T02:44:07.731Z,39.00
2023-03-03T02:46:37.202Z,37.67
2023-03-03T02:49:05.314Z,42.30
2023-03-03T02:51:32.316Z,42.55
2023-03-03T02:53:58.677Z,43.95
2023-03-03T02:56:28.035Z,39.15
2023-03-03T02:58:54.526Z,37.20
2023-03-03T03:01:21.510Z,39.47
2023-03-03T03:03:48.904Z,47.03
2023-03-03T03:06:19.548Z,37.85
2023-03-03T03:08:46.794Z,39.10
2023-03-03T03:11:13.169Z,34.78
2023-03-03T03:13:40.028Z,40.20
2023-03-03T03:16:06.987Z,40.67
2023-03-03T03:18:33.311Z,36.53
2023-03-03T03:21:11.669Z,35.15
2023-03-03T03:23:39.873Z,32.17
2023-03-03T03:26:07.535Z,34.58
2023-03-03T03:28:34.650Z,32.00
2023-03-03T03:31:02.205Z,33.25
2023-03-03T03:33:28.654Z,31.48
2023-03-03T03:35:56.835Z,36.65
2023-03-03T03:38:26.818Z,32.20
2023-03-03T03:40:54.581Z,34.50
2023-03-03T03:43:22.389Z,38.28
2023-03-03T03:45:49.297Z,33.95
2023-03-03T03:48:17.486Z,40.33
2023-03-03T03:50:47.994Z,37.03
2023-03-03T03:53:14.966Z,36.50
2023-03-03T03:55:41.393Z,37.97
2023-03-03T03:58:08.779Z,37.60
2023-03-03T04:00:35.264Z,33.47
2023-03-03T04:03:02.027Z,37.90
2023-03-03T04:05:28.598Z,42.00
2023-03-03T04:07:55.806Z,35.70
2023-03-03T04:10:22.180Z,36.75
2023-03-03T04:12:48.541Z,31.42
2023-03-03T04:15:15.607Z,42.25
2023-03-03T04:17:43.098Z,42.40
2023-03-03T04:20:13.641Z,42.47
2023-03-03T04:22:40.031Z,43.23
2023-03-03T04:25:07.295Z,36.72
2023-03-03T04:27:39.134Z,43.95
2023-03-03T04:30:07.127Z,41.10
2023-03-03T04:32:33.962Z,35.55
2023-03-03T04:35:08.088Z,46.10
2023-03-03T04:37:37.730Z,34.97
2023-03-03T04:40:07.748Z,39.88
2023-03-03T04:42:35.367Z,32.25
2023-03-03T04:45:03.187Z,34.58
2023-03-03T04:47:30.395Z,43.25
2023-03-03T04:49:56.933Z,67.30
2023-03-03T04:52:23.475Z,66.28
2023-03-03T04:54:49.894Z,64.65
2023-03-03T04:57:16.707Z,55.95
2023-03-03T04:59:43.702Z,48.22
2023-03-03T05:02:10.180Z,36.03
2023-03-03T05:04:36.513Z,44.80
2023-03-03T05:07:03.248Z,83.72
2023-03-03T05:09:29.609Z,82.72
2023-03-03T05:11:56.157Z,96.90
2023-03-03T05:14:22.847Z,107.78
2023-03-03T05:16:49.306Z,78.82
2023-03-03T05:19:15.639Z,79.47
2023-03-03T05:21:42.279Z,80.20
2023-03-03T05:24:12.966Z,68.18
2023-03-03T05:26:39.997Z,60.38
2023-03-03T05:29:06.905Z,84.20
2023-03-03T05:31:33.304Z,82.25
2023-03-03T05:33:59.638Z,83.05
2023-03-03T05:36:25.960Z,81.38
2023-03-03T05:38:52.283Z,77.80
2023-03-03T05:41:18.698Z,83.93
2023-03-03T05:43:45.227Z,95.88
2023-03-03T05:46:11.983Z,88.38
2023-03-03T05:48:38.309Z,61.13
2023-03-03T05:51:05.028Z,54.42
2023-03-03T05:53:31.320Z,60.90
2023-03-03T05:55:57.937Z,61.97
2023-03-03T05:58:24.241Z,80.25
2023-03-03T06:00:50.535Z,80.72
2023-03-03T06:03:17.065Z,88.90
2023-03-03T06:05:43.638Z,73.05
2023-03-03T06:08:10.099Z,39.10
2023-03-03T06:10:36.612Z,41.47
2023-03-03T06:13:05.836Z,43.80
2023-03-03T06:15:32.344Z,48.85
2023-03-03T06:17:58.710Z,38.67
2023-03-03T06:20:25.183Z,33.03
2023-03-03T06:22:51.502Z,34.67
2023-03-03T06:25:18.219Z,44.30
2023-03-03T06:27:44.538Z,60.15
2023-03-03T06:30:12.741Z,64.65
2023-03-03T06:32:39.474Z,54.80
2023-03-03T06:35:06.205Z,53.65
2023-03-03T06:37:32.516Z,66.07
2023-03-03T06:39:58.971Z,60.15
2023-03-03T06:42:25.266Z,66.45
2023-03-03T06:44:51.599Z,72.47
2023-03-03T06:47:17.953Z,72.15
2023-03-03T06:49:44.278Z,65.95
2023-03-03T06:52:28.546Z,71.85
2023-03-03T06:54:57.860Z,75.38
2023-03-03T06:57:29.993Z,76.97
2023-03-03T07:00:14.275Z,76.80
2023-03-03T07:02:41.263Z,85.82
2023-03-03T07:05:14.893Z,78.72
2023-03-03T07:07:41.287Z,78.85
2023-03-03T07:10:17.825Z,91.25
2023-03-03T07:12:44.169Z,82.57
2023-03-03T07:15:30.066Z,83.60
2023-03-03T07:17:59.659Z,80.53
2023-03-03T07:20:39.564Z,84.25
2023-03-03T07:23:23.104Z,82.43
2023-03-03T07:25:49.484Z,85.95
2023-03-03T07:28:24.296Z,85.57
2023-03-03T07:30:52.383Z,89.38
2023-03-03T07:33:29.168Z,79.63
2023-03-03T07:35:58.208Z,82.47
2023-03-03T07:38:35.389Z,84.65
2023-03-03T07:41:05.141Z,79.60
2023-03-03T07:43:48.397Z,85.93
2023-03-03T07:46:23.095Z,84.25
2023-03-03T07:48:51.915Z,84.93
2023-03-03T07:51:29.108Z,85.13
2023-03-03T07:54:29.038Z,81.65
2023-03-03T07:57:19.324Z,82.05
2023-03-03T08:00:01.157Z,84.78
2023-03-03T08:02:38.484Z,78.60
2023-03-03T08:05:32.215Z,72.40
2023-03-03T08:08:10.111Z,81.70
2023-03-03T08:10:44.527Z,84.65
2023-03-03T08:13:38.400Z,78.22
2023-03-03T08:16:07.873Z,80.90
2023-03-03T08:18:47.811Z,83.45
2023-03-03T08:21:16.327Z,77.15
2023-03-03T08:23:42.637Z,78.75
2023-03-03T08:26:09.552Z,74.55
2023-03-03T08:28:35.850Z,78.25
2023-03-03T08:31:15.267Z,79.47
2023-03-03T08:33:46.828Z,69.65
2023-03-03T08:36:13.540Z,68.22
2023-03-03T08:38:40.454Z,75.70
2023-03-03T08:41:06.842Z,71.13
2023-03-03T08:43:33.235Z,76.28
2023-03-03T08:46:01.906Z,75.65
2023-03-03T08:48:28.954Z,66.57
2023-03-03T08:50:55.497Z,75.13
2023-03-03T08:53:22.893Z,65.38
2023-03-03T08:55:49.623Z,68.47
2023-03-03T08:58:18.384Z,73.07
2023-03-03T09:00:48.325Z,65.72
2023-03-03T09:03:15.644Z,63.15
2023-03-03T09:05:42.063Z,66.05
2023-03-03T09:08:10.595Z,66.15
2023-03-03T09:10:36.930Z,72.95
2023-03-03T09:13:11.175Z,66.95
2023-03-03T09:15:38.469Z,64.57
2023-03-03T09:18:22.559Z,60.78
2023-03-03T09:20:50.728Z,63.70
2023-03-03T09:23:33.570Z,62.67
2023-03-03T09:26:30.247Z,56.58
2023-03-03T09:29:14.911Z,64.55
2023-03-03T09:32:08.628Z,63.15
2023-03-03T09:34:42.361Z,56.47
2023-03-03T09:37:47.188Z,52.35
2023-03-03T09:40:44.203Z,59.60
2023-03-03T09:43:37.345Z,53.10
2023-03-03T09:46:23.680Z,56.72
2023-03-03T09:49:01.913Z,49.40
2023-03-03T09:51:53.308Z,52.70
2023-03-03T09:57:27.360Z,47.78
2023-03-03T10:00:44.566Z,51.88
2023-03-03T10:03:39.022Z,51.30
2023-03-03T10:06:17.870Z,57.83
2023-03-03T10:08:52.799Z,51.00
2023-03-03T10:11:26.951Z,54.42
2023-03-03T10:14:04.169Z,49.13
2023-03-03T10:17:01.428Z,51.72
2023-03-03T10:19:39.940Z,55.05
2023-03-03T10:22:20.324Z,51.40
2023-03-03T10:25:02.577Z,51.20
2023-03-03T10:27:53.645Z,47.20
2023-03-03T10:30:39.829Z,45.80
2023-03-03T10:33:42.739Z,47.15
2023-03-03T10:36:31.021Z,56.40
2023-03-03T10:39:24.487Z,55.97
2023-03-03T10:42:09.542Z,47.80
2023-03-03T10:45:02.242Z,50.65
2023-03-03T10:47:40.080Z,42.80
2023-03-03T10:50:24.914Z,42.08
2023-03-03T10:53:03.500Z,41.80
2023-03-03T10:55:42.544Z,43.17
2023-03-03T10:58:24.022Z,39.08
2023-03-03T11:01:24.637Z,38.75
2023-03-03T11:04:10.030Z,40.03
2023-03-03T11:07:07.654Z,38.05
2023-03-03T11:09:50.638Z,36.83
2023-03-03T11:12:25.724Z,30.00
2023-03-03T11:15:03.678Z,45.42
2023-03-03T11:17:53.234Z,34.47
2023-03-03T11:20:29.043Z,34.08
2023-03-03T11:23:26.673Z,40.10
2023-03-03T11:26:09.105Z,30.65
2023-03-03T11:29:07.942Z,28.70
2023-03-03T11:32:27.285Z,30.13
2023-03-03T11:35:04.940Z,29.10
2023-03-03T11:38:05.774Z,31.42
2023-03-03T11:40:53.520Z,30.50
2023-03-03T11:43:38.053Z,28.08
2023-03-03T11:46:11.501Z,28.73
2023-03-03T11:48:47.395Z,25.83
2023-03-03T11:51:31.559Z,27.70
2023-03-03T11:54:03.967Z,26.15
2023-03-03T11:56:39.497Z,24.63
2023-03-03T11:59:13.567Z,25.60
2023-03-03T12:01:49.444Z,27.98
2023-03-03T12:04:22.198Z,25.92
2023-03-03T12:07:19.578Z,39.55
2023-03-03T12:09:53.477Z,32.38
2023-03-03T12:12:27.475Z,26.38
2023-03-03T12:15:15.612Z,26.20
2023-03-03T12:18:08.518Z,26.48
2023-03-03T12:21:16.143Z,26.13
2023-03-03T12:23:58.542Z,31.10
2023-03-03T12:26:32.413Z,24.48
2023-03-03T12:29:06.899Z,27.45
2023-03-03T12:32:00.472Z,29.33
2023-03-03T12:34:39.254Z,29.15
2023-03-03T12:37:21.893Z,31.05
2023-03-03T12:39:50.929Z,26.77
2023-03-03T12:42:49.676Z,22.52
2023-03-03T12:45:34.751Z,24.05
2023-03-03T12:48:13.280Z,24.85
2023-03-03T12:50:48.501Z,25.45
2023-03-03T12:53:26.943Z,25.90
2023-03-03T12:55:59.808Z,25.95
2023-03-03T12:58:35.093Z,24.45
2023-03-03T13:01:22.649Z,26.05
2023-03-03T13:03:57.902Z,24.65
2023-03-03T13:06:31.033Z,25.33
2023-03-03T13:09:21.543Z,22.55
2023-03-03T13:12:03.414Z,23.47
2023-03-03T13:14:41.605Z,22.10
2023-03-03T13:17:17.727Z,21.77
2023-03-03T13:19:51.228Z,27.30
2023-03-03T13:22:46.583Z,24.20
2023-03-03T13:25:36.748Z,22.00
2023-03-03T13:28:14.035Z,23.52
2023-03-03T13:30:56.399Z,21.50
2023-03-03T13:33:22.711Z,21.63
2023-03-03T13:35:54.953Z,25.15
2023-03-03T13:38:32.546Z,25.08
2023-03-03T13:41:06.808Z,24.02
2023-03-03T13:43:44.404Z,23.88
2023-03-03T13:46:32.152Z,23.95
2023-03-03T13:49:19.893Z,24.20
2023-03-03T13:52:09.743Z,24.13
2023-03-03T13:55:08.616Z,25.05
2023-03-03T13:58:16.551Z,26.73
2023-03-03T14:00:42.838Z,27.25
2023-03-03T14:03:09.085Z,24.70
2023-03-03T14:05:37.203Z,40.58
2023-03-03T14:08:31.013Z,26.95
2023-03-03T14:11:12.176Z,30.10
2023-03-03T14:13:47.707Z,31.38
2023-03-03T14:16:22.679Z,28.48
2023-03-03T14:19:01.588Z,29.85
2023-03-03T14:21:47.724Z,28.08
2023-03-03T14:24:19.304Z,30.13
2023-03-03T14:27:00.073Z,33.15
2023-03-03T14:29:26.332Z,32.83
2023-03-03T14:31:56.694Z,35.05
2023-03-03T14:34:22.967Z,36.35
2023-03-03T14:36:53.846Z,35.25
2023-03-03T14:39:34.885Z,40.05
2023-03-03T14:42:05.247Z,45.28
2023-03-03T14:44:38.346Z,41.30
2023-03-03T14:47:10.370Z,41.90
2023-03-03T14:49:38.392Z,47.97
2023-03-03T14:52:17.305Z,46.60
2023-03-03T14:54:46.719Z,45.05
2023-03-03T14:57:45.842Z,46.03
2023-03-03T15:00:12.179Z,44.05
2023-03-03T15:02:43.456Z,45.35
2023-03-03T15:05:16.168Z,43.45
2023-03-03T15:07:42.849Z,40.88
2023-03-03T15:10:10.925Z,46.03
2023-03-03T15:12:40.499Z,44.03
2023-03-03T15:15:08.203Z,49.15
2023-03-03T15:17:57.209Z,45.10
2023-03-03T15:20:35.573Z,43.03
2023-03-03T15:23:39.833Z,41.63
2023-03-03T15:26:16.190Z,47.33
2023-03-03T15:28:54.508Z,49.05
2023-03-03T15:31:51.870Z,47.03
2023-03-03T15:34:54.075Z,47.83
2023-03-03T15:37:57.726Z,42.70
2023-03-03T15:40:30.358Z,53.15
2023-03-03T15:43:26.307Z,59.80
2023-03-03T15:46:06.238Z,50.40
2023-03-03T15:48:46.022Z,44.58
2023-03-03T15:51:30.554Z,46.65
2023-03-03T15:54:22.465Z,48.30
2023-03-03T15:56:51.577Z,39.15
2023-03-03T15:59:32.430Z,44.15
2023-03-03T16:02:16.059Z,36.83
2023-03-03T16:05:08.214Z,44.50
2023-03-03T16:07:46.372Z,43.10
2023-03-03T16:10:21.487Z,40.90
2023-03-03T16:12:55.464Z,45.72
2023-03-03T16:15:34.422Z,41.95
2023-03-03T16:18:39.361Z,41.42
2023-03-03T16:21:33.312Z,41.35
2023-03-03T16:24:29.394Z,48.03
2023-03-03T16:27:16.684Z,42.20
2023-03-03T16:30:08.428Z,40.88
2023-03-03T16:32:41.396Z,42.35
2023-03-03T16:35:24.271Z,49.13
2023-03-03T16:38:19.375Z,48.58
2023-03-03T16:40:53.675Z,47.70
2023-03-03T16:43:43.099Z,54.90
2023-03-03T16:46:42.718Z,41.70
2023-03-03T16:49:30.148Z,40.95
2023-03-03T16:52:07.297Z,39.58
2023-03-03T16:54:54.121Z,38.75
2023-03-03T16:57:26.351Z,41.35
2023-03-03T16:59:58.999Z,41.33
2023-03-03T17:02:52.882Z,38.35
2023-03-03T17:05:31.342Z,44.83
2023-03-03T17:08:16.657Z,44.63
2023-03-03T17:10:50.211Z,39.60
2023-03-03T17:13:49.107Z,44.95
2023-03-03T17:16:51.901Z,40.83
2023-03-03T17:19:40.168Z,41.60
2023-03-03T17:22:20.265Z,42.90
2023-03-03T17:24:52.755Z,47.55
2023-03-03T17:27:45.829Z,50.17
2023-03-03T17:30:27.220Z,46.85
2023-03-03T17:33:09.230Z,45.60
2023-03-03T17:35:40.111Z,61.75
2023-03-03T17:38:18.406Z,69.80
2023-03-03T17:41:09.534Z,56.80
2023-03-03T17:43:51.216Z,60.67
2023-03-03T17:46:39.915Z,61.78
2023-03-03T17:49:18.330Z,55.67
2023-03-03T17:52:14.690Z,62.67
2023-03-03T17:55:04.386Z,64.35
2023-03-03T17:57:49.538Z,68.53
2023-03-03T18:00:31.049Z,66.82
2023-03-03T18:03:17.545Z,62.78
2023-03-03T18:06:37.282Z,67.78
2023-03-03T18:09:16.765Z,63.53
2023-03-03T18:12:00.063Z,69.53
2023-03-03T18:14:49.385Z,68.25
2023-03-03T18:17:28.703Z,65.15
2023-03-03T18:20:12.554Z,66.13
2023-03-03T18:22:46.716Z,66.38
2023-03-03T18:25:16.476Z,69.88
2023-03-03T18:27:45.484Z,71.85
2023-03-03T18:30:17.688Z,72.38
2023-03-03T18:33:00.870Z,70.80
2023-03-03T18:35:33.223Z,69.70
2023-03-03T18:38:17.950Z,75.32
2023-03-03T18:40:56.355Z,69.78
2023-03-03T18:43:44.597Z,67.05
2023-03-03T18:46:20.207Z,68.80
2023-03-03T18:49:09.928Z,88.43
2023-03-03T18:51:39.280Z,95.78
2023-03-03T18:54:26.130Z,79.93
2023-03-03T18:56:52.415Z,102.20
2023-03-03T18:59:31.020Z,83.78
2023-03-03T19:02:12.737Z,83.15
2023-03-03T19:04:43.136Z,90.05
2023-03-03T19:07:39.779Z,107.20
2023-03-03T19:10:44.557Z,100.68
2023-03-03T19:13:32.813Z,108.47
2023-03-03T19:16:04.122Z,153.52
2023-03-03T19:18:42.709Z,125.25
2023-03-03T19:21:12.173Z,98.45
2023-03-03T19:24:00.433Z,124.32
2023-03-03T19:26:30.187Z,111.10
2023-03-03T19:29:36.554Z,108.38
2023-03-03T19:32:18.548Z,95.13
2023-03-03T19:35:06.250Z,93.07
2023-03-03T19:38:04.261Z,95.40
2023-03-03T19:40:41.355Z,102.88
2023-03-03T19:43:17.394Z,100.97
2023-03-03T19:46:06.574Z,96.68
2023-03-03T19:48:44.994Z,99.40
2023-03-03T19:51:25.406Z,105.57
2023-03-03T19:54:15.026Z,102.60
2023-03-03T19:56:49.942Z,103.43
2023-03-03T19:59:26.945Z,104.78
2023-03-03T20:02:13.469Z,102.68
2023-03-03T20:04:57.999Z,99.13
2023-03-03T20:07:29.820Z,99.60
2023-03-03T20:10:06.190Z,109.38
2023-03-03T20:12:59.649Z,105.30
2023-03-03T20:15:42.107Z,106.15
2023-03-03T20:18:25.941Z,103.57
2023-03-03T20:21:13.505Z,108.43
2023-03-03T20:23:54.745Z,103.43
2023-03-03T20:26:39.347Z,104.50
2023-03-03T20:29:27.080Z,100.53
2023-03-03T20:32:12.630Z,102.45
2023-03-03T20:35:05.246Z,96.85
2023-03-03T20:37:57.616Z,104.72
2023-03-03T20:40:50.605Z,101.40
2023-03-03T20:43:54.324Z,99.10
2023-03-03T20:46:27.442Z,96.50
2023-03-03T20:49:31.531Z,107.10
2023-03-03T20:52:32.126Z,106.43
2023-03-03T20:55:19.218Z,111.53
2023-03-03T20:57:56.648Z,115.65
2023-03-03T21:00:38.659Z,119.95
2023-03-03T21:03:20.811Z,113.65
2023-03-03T21:05:57.881Z,107.50
2023-03-03T21:08:53.756Z,113.65
2023-03-03T21:11:42.087Z,98.90
2023-03-03T21:14:30.908Z,114.38
2023-03-03T21:17:02.376Z,113.97
2023-03-03T21:19:33.846Z,102.75
2023-03-03T21:22:02.383Z,112.00
2023-03-03T21:24:49.305Z,147.32
2023-03-03T21:27:32.306Z,140.40
2023-03-03T21:30:12.802Z,144.82
2023-03-03T21:32:47.918Z,130.88
2023-03-03T21:35:21.968Z,144.50
2023-03-03T21:37:52.922Z,132.55
2023-03-03T21:40:26.460Z,147.05
2023-03-03T21:42:55.198Z,140.05
2023-03-03T21:45:21.712Z,120.13
2023-03-03T21:47:48.259Z,127.82
2023-03-03T21:50:14.920Z,132.18
2023-03-03T21:52:41.286Z,132.40
2023-03-03T21:55:08.500Z,134.02
2023-03-03T21:57:37.706Z,131.77
2023-03-03T22:00:06.357Z,126.20
2023-03-03T22:02:34.433Z,110.50
2023-03-03T22:05:03.028Z,95.57
2023-03-03T22:07:29.880Z,110.38
2023-03-03T22:09:56.266Z,103.78
2023-03-03T22:12:22.600Z,96.70
2023-03-03T22:14:49.275Z,98.38
2023-03-03T22:17:15.594Z,105.03
2023-03-03T22:19:41.881Z,96.63
2023-03-03T22:22:08.194Z,100.22
2023-03-03T22:24:34.503Z,101.53
2023-03-03T22:27:00.792Z,110.07
2023-03-03T22:29:27.194Z,108.50
2023-03-03T22:31:53.537Z,96.05
2023-03-03T22:34:19.917Z,105.03
2023-03-03T22:36:46.246Z,95.10
2023-03-03T22:39:12.568Z,106.15
2023-03-03T22:41:38.845Z,102.35
2023-03-03T22:44:05.235Z,110.38
2023-03-03T22:46:31.608Z,115.45
2023-03-03T22:48:57.954Z,121.68
2023-03-03T22:51:26.004Z,108.22
2023-03-03T22:53:52.318Z,111.07
2023-03-03T22:56:18.633Z,112.68
2023-03-03T22:58:44.998Z,112.68
2023-03-03T23:01:11.288Z,112.63
2023-03-03T23:03:37.664Z,111.25
2023-03-03T23:06:04.372Z,104.60
2023-03-03T23:08:30.693Z,108.63
2023-03-03T23:10:57.039Z,109.40
2023-03-03T23:13:25.017Z,97.45
2023-03-03T23:15:51.360Z,98.68
2023-03-03T23:18:17.683Z,99.63
2023-03-03T23:20:45.812Z,101.05
2023-03-03T23:23:12.463Z,117.00
2023-03-03T23:25:38.813Z,122.97
2023-03-03T23:28:05.452Z,103.10
2023-03-03T23:30:31.779Z,99.78
2023-03-03T23:32:58.096Z,104.78
2023-03-03T23:35:24.553Z,104.07
2023-03-03T23:37:50.892Z,104.53
2023-03-03T23:40:17.336Z,99.10
2023-03-03T23:42:44.182Z,110.18
2023-03-03T23:45:11.877Z,112.35
2023-03-03T23:47:38.322Z,103.30
2023-03-03T23:50:05.239Z,113.75
2023-03-03T23:52:31.915Z,113.63
2023-03-03T23:54:58.372Z,122.07
2023-03-03T23:57:24.854Z,108.03
2023-03-03T23:59:51.216Z,128.13
